Time;durP1;ratioP1;P1;durP2;ratioP2;P2;SDS_P1;SDS_P2;PMS_P1;PMS_P2;Temp;Humidity;BMP_temperature;BMP_pressure;BME280_temperature;BME280_humidity;BME280_pressure;Samples;Min_cycle;Max_cycle;Signal;HPM_P1;HPM_P2
2022/06/27 00:00:49;;;;;;;11.70;8.97;;;;;;;;;;5001956;28;20239;-77
2022/06/27 00:03:16;;;;;;;14.23;10.23;;;;;;;;;;4991129;28;216866;-79
2022/06/27 00:05:44;;;;;;;14.00;10.30;;;;;;;;;;4997960;28;220257;-79
2022/06/27 00:08:10;;;;;;;17.17;10.67;;;;;;;;;;4987003;28;20223;-78
2022/06/27 00:10:38;;;;;;;17.13;11.60;;;;;;;;;;4940092;28;224031;-78
2022/06/27 00:13:05;;;;;;;16.23;10.90;;;;;;;;;;4964892;28;222993;-79
2022/06/27 00:15:31;;;;;;;16.63;10.97;;;;;;;;;;4951900;28;219449;-79
2022/06/27 00:17:58;;;;;;;17.20;11.60;;;;;;;;;;4971694;28;220235;-79
2022/06/27 00:20:25;;;;;;;16.60;10.80;;;;;;;;;;4964225;28;222336;-79
2022/06/27 00:22:52;;;;;;;12.80;9.50;;;;;;;;;;4990645;28;216572;-79
2022/06/27 00:25:19;;;;;;;10.53;8.73;;;;;;;;;;4991475;28;217486;-79
2022/06/27 00:27:45;;;;;;;11.77;9.80;;;;;;;;;;5004911;28;20313;-79
2022/06/27 00:30:12;;;;;;;17.27;9.83;;;;;;;;;;4988386;28;218168;-79
2022/06/27 00:32:39;;;;;;;12.47;8.77;;;;;;;;;;4977558;28;215478;-78
2022/06/27 00:35:07;;;;;;;13.70;10.27;;;;;;;;;;4975116;28;218769;-78
2022/06/27 00:37:34;;;;;;;14.17;9.93;;;;;;;;;;4991042;28;20219;-78
2022/06/27 00:40:03;;;;;;;15.37;9.43;;;;;;;;;;4959709;28;220646;-78
2022/06/27 00:42:30;;;;;;;15.27;9.50;;;;;;;;;;4955508;28;216558;-78
2022/06/27 00:44:56;;;;;;;13.53;9.30;;;;;;;;;;4962352;28;219993;-79
2022/06/27 00:47:23;;;;;;;13.23;10.20;;;;;;;;;;4987979;28;215816;-78
2022/06/27 00:49:50;;;;;;;13.70;9.67;;;;;;;;;;5003531;28;20266;-79
2022/06/27 00:52:17;;;;;;;13.07;9.43;;;;;;;;;;5002998;28;20231;-78
2022/06/27 00:54:44;;;;;;;11.80;9.67;;;;;;;;;;5003200;28;20226;-79
2022/06/27 00:57:11;;;;;;;10.70;9.20;;;;;;;;;;5000457;28;20294;-78
2022/06/27 00:59:38;;;;;;;10.23;8.93;;;;;;;;;;4969573;28;20231;-78
2022/06/27 01:02:05;;;;;;;12.90;9.57;;;;;;;;;;5001718;28;20237;-78
2022/06/27 01:04:32;;;;;;;13.60;10.40;;;;;;;;;;4947211;28;215908;-78
2022/06/27 01:06:58;;;;;;;14.20;10.53;;;;;;;;;;4961704;28;230709;-79
2022/06/27 01:09:25;;;;;;;13.13;9.43;;;;;;;;;;4985855;28;219826;-78
2022/06/27 01:11:52;;;;;;;12.20;10.17;;;;;;;;;;4995203;28;217728;-78
2022/06/27 01:14:19;;;;;;;13.27;11.23;;;;;;;;;;4989186;28;221826;-78
2022/06/27 01:16:45;;;;;;;13.33;10.10;;;;;;;;;;4974211;28;224809;-78
2022/06/27 01:19:13;;;;;;;12.17;10.47;;;;;;;;;;4987048;28;20234;-78
2022/06/27 01:21:50;;;;;;;14.93;10.80;;;;;;;;;;4991444;28;218587;-78
2022/06/27 01:24:17;;;;;;;11.70;10.43;;;;;;;;;;4985494;28;20567;-78
2022/06/27 01:26:43;;;;;;;11.10;9.60;;;;;;;;;;4969960;28;20642;-78
2022/06/27 01:29:13;;;;;;;12.87;10.47;;;;;;;;;;4983008;28;218940;-79
2022/06/27 01:31:40;;;;;;;13.93;10.67;;;;;;;;;;4988519;28;219498;-78
2022/06/27 01:34:09;;;;;;;14.37;11.33;;;;;;;;;;4967065;28;20270;-78
2022/06/27 01:36:44;;;;;;;15.50;11.77;;;;;;;;;;4950782;28;213366;-78
2022/06/27 01:39:19;;;;;;;14.83;10.17;;;;;;;;;;4980931;28;20231;-78
2022/06/27 01:41:47;;;;;;;14.33;10.50;;;;;;;;;;4971713;28;231109;-78
2022/06/27 01:44:14;;;;;;;11.50;9.03;;;;;;;;;;4970127;28;219320;-78
2022/06/27 01:46:44;;;;;;;13.27;10.73;;;;;;;;;;4986534;28;20303;-78
2022/06/27 01:49:11;;;;;;;12.07;10.47;;;;;;;;;;4985863;28;20227;-78
2022/06/27 01:51:38;;;;;;;12.20;10.57;;;;;;;;;;4994499;28;234533;-78
2022/06/27 01:54:08;;;;;;;11.63;10.10;;;;;;;;;;4968773;28;221163;-78
2022/06/27 01:56:35;;;;;;;11.43;10.30;;;;;;;;;;4981879;28;20235;-78
2022/06/27 01:59:02;;;;;;;10.10;8.80;;;;;;;;;;4992463;28;20306;-78
2022/06/27 02:01:30;;;;;;;12.13;9.93;;;;;;;;;;4985786;28;20273;-78
2022/06/27 02:03:57;;;;;;;12.83;11.17;;;;;;;;;;5001877;28;20229;-79
2022/06/27 02:06:23;;;;;;;14.80;11.70;;;;;;;;;;4965829;28;109803;-77
2022/06/27 02:08:50;;;;;;;11.53;10.20;;;;;;;;;;5002774;28;20594;-78
2022/06/27 02:11:17;;;;;;;12.40;9.97;;;;;;;;;;4943864;28;217965;-78
2022/06/27 02:13:44;;;;;;;14.50;10.57;;;;;;;;;;4964386;28;20634;-78
2022/06/27 02:16:13;;;;;;;13.40;11.13;;;;;;;;;;4981478;28;20231;-78
2022/06/27 02:18:40;;;;;;;12.47;11.20;;;;;;;;;;4971452;28;222683;-78
2022/06/27 02:21:07;;;;;;;14.13;10.93;;;;;;;;;;4994817;28;20249;-78
2022/06/27 02:23:34;;;;;;;13.57;9.97;;;;;;;;;;5001418;28;20226;-77
2022/06/27 02:26:00;;;;;;;11.60;9.60;;;;;;;;;;4986471;28;20334;-78
2022/06/27 02:28:44;;;;;;;14.80;11.43;;;;;;;;;;4978046;28;213586;-78
2022/06/27 02:31:11;;;;;;;14.73;11.80;;;;;;;;;;4983838;28;20227;-78
2022/06/27 02:33:42;;;;;;;12.73;10.67;;;;;;;;;;4969775;28;20219;-78
2022/06/27 02:36:10;;;;;;;12.27;9.77;;;;;;;;;;4950353;28;315787;-77
2022/06/27 02:38:37;;;;;;;13.77;9.90;;;;;;;;;;4984699;28;20258;-77
2022/06/27 02:41:04;;;;;;;12.83;10.23;;;;;;;;;;4949638;28;216646;-77
2022/06/27 02:43:32;;;;;;;11.63;8.87;;;;;;;;;;4969114;28;20236;-78
2022/06/27 02:46:01;;;;;;;13.07;10.50;;;;;;;;;;4989287;28;220538;-78
2022/06/27 02:48:28;;;;;;;15.27;10.03;;;;;;;;;;4999513;28;20231;-77
2022/06/27 02:50:56;;;;;;;14.20;9.30;;;;;;;;;;4967135;28;20317;-77
2022/06/27 02:53:26;;;;;;;12.20;10.30;;;;;;;;;;4975168;28;214705;-77
2022/06/27 02:56:06;;;;;;;10.50;9.40;;;;;;;;;;4980330;28;20220;-77
2022/06/27 02:58:35;;;;;;;11.97;10.03;;;;;;;;;;4973947;28;20223;-78
2022/06/27 03:01:04;;;;;;;11.53;10.33;;;;;;;;;;4951817;28;215085;-78
2022/06/27 03:03:31;;;;;;;14.97;11.50;;;;;;;;;;5006042;28;20302;-77
2022/06/27 03:05:59;;;;;;;12.20;10.07;;;;;;;;;;4979490;28;222077;-78
2022/06/27 03:08:44;;;;;;;13.03;10.53;;;;;;;;;;4985212;28;234678;-74
2022/06/27 03:11:11;;;;;;;12.13;10.20;;;;;;;;;;4958746;28;221492;-78
2022/06/27 03:13:39;;;;;;;11.17;10.03;;;;;;;;;;4941285;28;241834;-77
2022/06/27 03:16:05;;;;;;;11.73;9.57;;;;;;;;;;4961249;28;20234;-79
2022/06/27 03:18:32;;;;;;;10.50;9.50;;;;;;;;;;4951208;28;220021;-76
2022/06/27 03:21:17;;;;;;;12.17;9.50;;;;;;;;;;4966352;28;219468;-79
2022/06/27 03:23:51;;;;;;;12.17;10.97;;;;;;;;;;4947571;28;20231;-81
2022/06/27 03:26:17;;;;;;;12.50;10.60;;;;;;;;;;4932164;28;20697;-79
2022/06/27 03:28:48;;;;;;;11.37;10.27;;;;;;;;;;4914364;28;220870;-75
2022/06/27 03:31:15;;;;;;;12.43;10.20;;;;;;;;;;4979487;28;20258;-75
2022/06/27 03:33:46;;;;;;;13.90;11.47;;;;;;;;;;4972122;28;20235;-75
2022/06/27 03:36:27;;;;;;;12.23;10.90;;;;;;;;;;4893379;28;25877;-75
2022/06/27 03:38:54;;;;;;;13.50;10.10;;;;;;;;;;4934684;28;217132;-75
2022/06/27 03:41:22;;;;;;;13.70;11.37;;;;;;;;;;4946145;28;234126;-76
2022/06/27 03:43:49;;;;;;;11.53;10.17;;;;;;;;;;4928921;28;22662;-76
2022/06/27 03:46:17;;;;;;;15.97;11.20;;;;;;;;;;4902500;28;221148;-77
2022/06/27 03:51:46;;;;;;;28.33;11.47;;;;;;;;;;4943895;28;220089;-77
2022/06/27 03:54:13;;;;;;;32.37;12.47;;;;;;;;;;4961376;28;34880;-77
2022/06/27 03:56:40;;;;;;;22.33;11.70;;;;;;;;;;4923987;28;20273;-77
2022/06/27 03:59:08;;;;;;;28.17;11.87;;;;;;;;;;4939181;28;233881;-77
2022/06/27 04:01:35;;;;;;;25.33;11.20;;;;;;;;;;4964012;28;20239;-75
2022/06/27 04:04:03;;;;;;;24.77;11.10;;;;;;;;;;4945131;28;24161;-77
2022/06/27 04:06:33;;;;;;;22.53;11.67;;;;;;;;;;4975472;28;20234;-75
2022/06/27 04:08:59;;;;;;;17.00;11.30;;;;;;;;;;4957244;28;20290;-76
2022/06/27 04:11:44;;;;;;;19.63;10.63;;;;;;;;;;4972829;28;35626;-76
2022/06/27 04:14:22;;;;;;;17.03;10.00;;;;;;;;;;4980507;28;218285;-76
2022/06/27 04:17:25;;;;;;;16.13;9.30;;;;;;;;;;4965151;28;25381;-75
2022/06/27 04:20:11;;;;;;;17.53;10.50;;;;;;;;;;4975342;28;25234;-76
2022/06/27 04:22:54;;;;;;;13.80;11.00;;;;;;;;;;4940184;28;220964;-76
2022/06/27 04:25:33;;;;;;;13.53;10.60;;;;;;;;;;4940859;28;218331;-76
2022/06/27 04:28:05;;;;;;;18.23;10.60;;;;;;;;;;4903555;28;234987;-78
2022/06/27 04:30:32;;;;;;;13.97;10.80;;;;;;;;;;4939050;28;216682;-76
2022/06/27 04:32:59;;;;;;;17.43;10.83;;;;;;;;;;4957458;28;222874;-77
2022/06/27 04:35:26;;;;;;;19.20;11.23;;;;;;;;;;4962131;28;216783;-71
2022/06/27 04:37:53;;;;;;;12.43;10.70;;;;;;;;;;4952441;28;21032;-75
2022/06/27 04:40:43;;;;;;;13.80;10.90;;;;;;;;;;4940522;28;20235;-74
2022/06/27 04:43:10;;;;;;;15.27;10.17;;;;;;;;;;4950695;28;20231;-75
2022/06/27 04:45:38;;;;;;;14.10;9.57;;;;;;;;;;4926277;28;20316;-73
2022/06/27 04:48:26;;;;;;;11.77;9.40;;;;;;;;;;4921221;28;20557;-75
2022/06/27 04:51:11;;;;;;;13.50;9.20;;;;;;;;;;4959584;28;20676;-74
2022/06/27 04:53:38;;;;;;;17.20;9.17;;;;;;;;;;4966403;28;20239;-74
2022/06/27 04:56:06;;;;;;;12.57;8.77;;;;;;;;;;4959485;28;20282;-75
2022/06/27 04:58:33;;;;;;;13.47;8.90;;;;;;;;;;4990588;28;20627;-73
2022/06/27 05:01:01;;;;;;;14.33;9.13;;;;;;;;;;4964214;28;20413;-74
2022/06/27 05:03:51;;;;;;;17.33;9.23;;;;;;;;;;4978551;28;20231;-74
2022/06/27 05:06:23;;;;;;;11.83;8.73;;;;;;;;;;4975860;28;20231;-72
2022/06/27 05:08:51;;;;;;;14.97;8.47;;;;;;;;;;4971475;28;20257;-72
2022/06/27 05:11:18;;;;;;;17.40;8.93;;;;;;;;;;4954754;28;20249;-71
2022/06/27 05:13:45;;;;;;;14.90;8.63;;;;;;;;;;4967900;28;20231;-76
2022/06/27 05:16:29;;;;;;;13.30;8.70;;;;;;;;;;4992872;28;240123;-71
2022/06/27 05:18:57;;;;;;;10.27;6.80;;;;;;;;;;4987415;28;20879;-73
2022/06/27 05:21:43;;;;;;;10.33;7.57;;;;;;;;;;4957246;28;20235;-72
2022/06/27 05:24:11;;;;;;;10.70;7.33;;;;;;;;;;4952855;28;636508;-73
2022/06/27 05:26:37;;;;;;;10.80;6.87;;;;;;;;;;4928754;28;638065;-76
2022/06/27 05:29:04;;;;;;;8.13;7.17;;;;;;;;;;4970751;28;26376;-79
2022/06/27 05:31:49;;;;;;;9.10;7.03;;;;;;;;;;4981175;28;20223;-76
2022/06/27 05:34:18;;;;;;;12.33;6.60;;;;;;;;;;4977420;28;20230;-71
2022/06/27 05:37:04;;;;;;;9.80;7.10;;;;;;;;;;4891300;28;434146;-75
2022/06/27 05:39:33;;;;;;;12.43;6.70;;;;;;;;;;4953557;28;216437;-73
2022/06/27 05:42:00;;;;;;;11.97;7.47;;;;;;;;;;4983105;28;20223;-74
2022/06/27 05:44:28;;;;;;;9.87;7.03;;;;;;;;;;4850562;28;673106;-83
2022/06/27 05:46:56;;;;;;;8.37;7.10;;;;;;;;;;4992829;28;20236;-80
2022/06/27 05:49:39;;;;;;;10.70;6.67;;;;;;;;;;4937436;28;217634;-75
2022/06/27 05:52:07;;;;;;;10.17;7.13;;;;;;;;;;4933471;28;258878;-74
2022/06/27 05:54:36;;;;;;;10.80;7.00;;;;;;;;;;4943658;28;234057;-75
2022/06/27 05:57:05;;;;;;;9.30;6.83;;;;;;;;;;4983453;28;20218;-72
2022/06/27 05:59:51;;;;;;;7.57;6.77;;;;;;;;;;4970304;28;20227;-72
2022/06/27 06:02:18;;;;;;;11.13;6.63;;;;;;;;;;4981960;28;20228;-71
2022/06/27 06:04:45;;;;;;;8.20;5.87;;;;;;;;;;4982047;28;20694;-70
2022/06/27 06:07:14;;;;;;;10.07;5.97;;;;;;;;;;5000339;28;20223;-70
2022/06/27 06:09:41;;;;;;;6.50;5.70;;;;;;;;;;5004164;28;21273;-62
2022/06/27 06:12:11;;;;;;;6.83;5.60;;;;;;;;;;4963069;28;21278;-76
2022/06/27 06:14:49;;;;;;;6.73;5.47;;;;;;;;;;4967976;28;214414;-73
2022/06/27 06:17:16;;;;;;;11.13;5.73;;;;;;;;;;4952471;28;229215;-73
2022/06/27 06:19:43;;;;;;;7.23;5.03;;;;;;;;;;4972913;28;220038;-78
2022/06/27 06:22:12;;;;;;;6.83;5.37;;;;;;;;;;4800424;28;254768;-79
2022/06/27 06:24:39;;;;;;;6.60;4.80;;;;;;;;;;4882429;28;223833;-75
2022/06/27 06:27:08;;;;;;;6.33;5.10;;;;;;;;;;4955518;28;224847;-73
2022/06/27 06:29:35;;;;;;;5.47;4.70;;;;;;;;;;4958311;28;20260;-73
2022/06/27 06:32:04;;;;;;;6.27;4.57;;;;;;;;;;4906319;28;234776;-72
2022/06/27 06:34:35;;;;;;;7.00;4.67;;;;;;;;;;4979992;28;20238;-74
2022/06/27 06:37:01;;;;;;;8.40;5.23;;;;;;;;;;4983847;28;20227;-74
2022/06/27 06:39:28;;;;;;;5.63;5.10;;;;;;;;;;4954619;28;20631;-74
2022/06/27 06:41:57;;;;;;;6.67;4.80;;;;;;;;;;4984531;28;25461;-74
2022/06/27 06:44:26;;;;;;;10.73;5.47;;;;;;;;;;4947604;28;212694;-74
2022/06/27 06:47:14;;;;;;;9.73;4.63;;;;;;;;;;4979043;28;20242;-75
2022/06/27 06:49:50;;;;;;;5.60;4.17;;;;;;;;;;4983481;28;20233;-75
2022/06/27 06:52:19;;;;;;;8.30;4.70;;;;;;;;;;5000930;28;31765;-75
2022/06/27 06:55:03;;;;;;;9.13;5.00;;;;;;;;;;4982544;28;20235;-76
2022/06/27 06:57:30;;;;;;;7.53;4.63;;;;;;;;;;5000782;28;20222;-74
2022/06/27 06:59:57;;;;;;;6.57;4.27;;;;;;;;;;5000183;28;20242;-75
2022/06/27 07:02:24;;;;;;;6.73;4.70;;;;;;;;;;5000507;28;20251;-74
2022/06/27 07:04:52;;;;;;;6.30;4.30;;;;;;;;;;5001183;28;20247;-75
2022/06/27 07:07:20;;;;;;;5.77;4.50;;;;;;;;;;5000115;28;20231;-76
2022/06/27 07:09:47;;;;;;;5.77;4.50;;;;;;;;;;5000609;28;20236;-74
2022/06/27 07:12:19;;;;;;;7.43;4.30;;;;;;;;;;5001922;28;20695;-74
2022/06/27 07:14:47;;;;;;;5.83;4.73;;;;;;;;;;5002323;28;20236;-75
2022/06/27 07:17:14;;;;;;;6.67;4.50;;;;;;;;;;4968661;28;20662;-73
2022/06/27 07:19:45;;;;;;;4.77;4.23;;;;;;;;;;5002097;28;24396;-76
2022/06/27 07:22:12;;;;;;;4.57;4.17;;;;;;;;;;4999211;28;20697;-74
2022/06/27 07:24:40;;;;;;;5.90;4.13;;;;;;;;;;5001201;28;20254;-74
2022/06/27 07:27:07;;;;;;;5.13;3.90;;;;;;;;;;5001482;28;20225;-75
2022/06/27 07:29:33;;;;;;;5.13;4.20;;;;;;;;;;5002933;28;20229;-75
2022/06/27 07:32:01;;;;;;;6.53;3.70;;;;;;;;;;4986309;28;20575;-75
2022/06/27 07:34:28;;;;;;;7.50;4.07;;;;;;;;;;5002216;28;20242;-74
2022/06/27 07:36:56;;;;;;;5.50;4.17;;;;;;;;;;4993712;28;20230;-74
2022/06/27 07:39:23;;;;;;;4.13;3.60;;;;;;;;;;5001718;28;20329;-74
2022/06/27 07:41:49;;;;;;;5.40;3.90;;;;;;;;;;5001364;28;20238;-74
2022/06/27 07:44:17;;;;;;;4.90;3.83;;;;;;;;;;5000314;28;22141;-75
2022/06/27 07:46:43;;;;;;;6.10;3.90;;;;;;;;;;5001437;28;20228;-75
2022/06/27 07:49:10;;;;;;;4.60;3.60;;;;;;;;;;4988297;28;20736;-74
2022/06/27 07:51:37;;;;;;;5.17;3.87;;;;;;;;;;4971865;28;20268;-75
2022/06/27 07:54:04;;;;;;;7.90;3.70;;;;;;;;;;5002165;28;20270;-76
2022/06/27 07:56:31;;;;;;;5.20;3.67;;;;;;;;;;4986788;28;20246;-75
2022/06/27 07:59:18;;;;;;;5.57;3.73;;;;;;;;;;4988341;28;20226;-73
2022/06/27 08:02:02;;;;;;;6.37;3.97;;;;;;;;;;4992256;28;20258;-75
2022/06/27 08:04:29;;;;;;;8.00;4.10;;;;;;;;;;5006189;28;20227;-75
2022/06/27 08:06:57;;;;;;;6.60;4.40;;;;;;;;;;4986647;28;20219;-74
2022/06/27 08:09:24;;;;;;;5.17;4.67;;;;;;;;;;4973357;28;20265;-74
2022/06/27 08:11:51;;;;;;;4.60;4.20;;;;;;;;;;4986571;28;20235;-74
2022/06/27 08:14:17;;;;;;;4.97;3.90;;;;;;;;;;5004525;28;20243;-75
2022/06/27 08:16:46;;;;;;;8.43;4.30;;;;;;;;;;5001271;28;20682;-75
2022/06/27 08:19:15;;;;;;;9.27;4.13;;;;;;;;;;5005075;28;20227;-73
2022/06/27 08:21:41;;;;;;;6.10;4.40;;;;;;;;;;5000907;28;20223;-74
2022/06/27 08:24:09;;;;;;;5.83;4.53;;;;;;;;;;5004282;28;20235;-74
2022/06/27 08:26:36;;;;;;;7.17;4.60;;;;;;;;;;5001484;28;20238;-74
2022/06/27 08:29:03;;;;;;;7.03;4.77;;;;;;;;;;4973045;28;20579;-74
2022/06/27 08:31:31;;;;;;;6.13;4.57;;;;;;;;;;5004097;28;20227;-74
2022/06/27 08:34:04;;;;;;;5.80;4.97;;;;;;;;;;4988414;28;20285;-74
2022/06/27 08:36:33;;;;;;;5.23;4.47;;;;;;;;;;5002684;28;20223;-74
2022/06/27 08:39:05;;;;;;;5.77;4.80;;;;;;;;;;5003474;28;20313;-74
2022/06/27 08:41:32;;;;;;;6.63;5.00;;;;;;;;;;4986074;28;20254;-74
2022/06/27 08:44:00;;;;;;;5.03;4.40;;;;;;;;;;4967679;28;20236;-74
2022/06/27 08:46:28;;;;;;;4.83;4.33;;;;;;;;;;4965399;28;228573;-75
2022/06/27 08:48:55;;;;;;;8.73;4.67;;;;;;;;;;5004667;28;28797;-74
2022/06/27 08:51:22;;;;;;;6.27;4.60;;;;;;;;;;4974016;28;20230;-73
2022/06/27 08:53:49;;;;;;;7.60;4.10;;;;;;;;;;5004339;28;20305;-73
2022/06/27 08:56:16;;;;;;;6.53;4.13;;;;;;;;;;4989162;28;229993;-74
2022/06/27 08:58:46;;;;;;;6.27;4.20;;;;;;;;;;5004243;28;20334;-74
2022/06/27 09:01:13;;;;;;;6.63;4.50;;;;;;;;;;5002410;28;20222;-73
2022/06/27 09:03:40;;;;;;;4.90;4.20;;;;;;;;;;5002704;28;20229;-74
2022/06/27 09:06:08;;;;;;;5.87;4.47;;;;;;;;;;5001319;28;20242;-73
2022/06/27 09:08:36;;;;;;;5.10;4.20;;;;;;;;;;4984547;28;20721;-73
2022/06/27 09:11:03;;;;;;;5.23;4.70;;;;;;;;;;4990729;28;20235;-73
2022/06/27 09:13:30;;;;;;;6.43;4.30;;;;;;;;;;4987193;28;20285;-74
2022/06/27 09:15:59;;;;;;;6.03;4.53;;;;;;;;;;4992673;28;20240;-74
2022/06/27 09:18:29;;;;;;;4.33;3.93;;;;;;;;;;4982030;28;20231;-74
2022/06/27 09:21:00;;;;;;;5.30;4.07;;;;;;;;;;5005068;28;20266;-73
2022/06/27 09:23:47;;;;;;;5.57;3.90;;;;;;;;;;5003401;28;20231;-73
2022/06/27 09:26:15;;;;;;;5.77;3.80;;;;;;;;;;5004352;28;20215;-73
2022/06/27 09:28:44;;;;;;;4.93;3.67;;;;;;;;;;4998848;28;20215;-74
2022/06/27 09:31:31;;;;;;;7.10;3.60;;;;;;;;;;4989847;28;20267;-74
2022/06/27 09:34:18;;;;;;;4.30;3.90;;;;;;;;;;4986284;28;20242;-74
2022/06/27 09:36:46;;;;;;;5.50;3.70;;;;;;;;;;4989365;28;23258;-74
2022/06/27 09:39:17;;;;;;;7.83;4.27;;;;;;;;;;5003184;28;20293;-74
2022/06/27 09:41:47;;;;;;;4.33;3.70;;;;;;;;;;5002677;28;20246;-74
2022/06/27 09:44:14;;;;;;;5.50;3.30;;;;;;;;;;5002881;28;20249;-73
2022/06/27 09:46:43;;;;;;;5.10;3.50;;;;;;;;;;4986275;28;20242;-74
2022/06/27 09:49:12;;;;;;;3.60;2.90;;;;;;;;;;4985960;28;20219;-74
2022/06/27 09:51:39;;;;;;;5.33;3.37;;;;;;;;;;4983519;28;20281;-74
2022/06/27 09:54:21;;;;;;;6.47;3.67;;;;;;;;;;4986818;28;20591;-74
2022/06/27 09:56:52;;;;;;;4.13;3.20;;;;;;;;;;5000921;28;20302;-74
2022/06/27 09:59:19;;;;;;;3.97;2.93;;;;;;;;;;5000572;28;20219;-75
2022/06/27 10:01:47;;;;;;;4.07;3.20;;;;;;;;;;4999951;28;20219;-74
2022/06/27 10:04:13;;;;;;;3.83;3.20;;;;;;;;;;5002492;28;20282;-74
2022/06/27 10:06:59;;;;;;;5.27;3.63;;;;;;;;;;5002025;28;20235;-74
2022/06/27 10:09:26;;;;;;;3.30;3.00;;;;;;;;;;4999902;28;20246;-74
2022/06/27 10:12:31;;;;;;;3.40;3.10;;;;;;;;;;4976526;28;20230;-74
2022/06/27 10:15:10;;;;;;;5.00;3.30;;;;;;;;;;5001115;28;20235;-75
2022/06/27 10:17:38;;;;;;;4.10;3.13;;;;;;;;;;5001589;28;21523;-75
2022/06/27 10:20:07;;;;;;;4.20;3.30;;;;;;;;;;5002288;28;20227;-75
2022/06/27 10:22:34;;;;;;;4.90;3.23;;;;;;;;;;4985274;28;20234;-73
2022/06/27 10:25:20;;;;;;;5.33;3.10;;;;;;;;;;4997166;28;20231;-73
2022/06/27 10:27:47;;;;;;;8.23;3.37;;;;;;;;;;4996072;28;20357;-74
2022/06/27 10:30:32;;;;;;;7.33;3.40;;;;;;;;;;4953038;28;20267;-74
2022/06/27 10:33:00;;;;;;;4.77;3.10;;;;;;;;;;4911542;28;636608;-72
2022/06/27 10:35:27;;;;;;;6.37;3.13;;;;;;;;;;4994438;28;20235;-77
2022/06/27 10:37:54;;;;;;;7.87;3.30;;;;;;;;;;4944257;28;220609;-79
2022/06/27 10:40:21;;;;;;;5.63;3.47;;;;;;;;;;4918806;28;223008;-76
2022/06/27 10:42:54;;;;;;;3.97;3.20;;;;;;;;;;4945291;28;249452;-74
2022/06/27 10:45:21;;;;;;;3.93;3.10;;;;;;;;;;4953588;28;213725;-74
2022/06/27 10:47:49;;;;;;;3.43;2.80;;;;;;;;;;4992450;28;20325;-73
2022/06/27 10:50:17;;;;;;;4.50;3.40;;;;;;;;;;4982704;28;214019;-72
2022/06/27 10:52:45;;;;;;;3.43;3.13;;;;;;;;;;4971585;28;20240;-80
2022/06/27 10:55:24;;;;;;;7.20;3.10;;;;;;;;;;4964809;28;214527;-74
2022/06/27 10:57:52;;;;;;;6.87;3.30;;;;;;;;;;4993029;28;20242;-76
2022/06/27 11:00:38;;;;;;;6.17;2.80;;;;;;;;;;4972539;28;212998;-78
2022/06/27 11:03:05;;;;;;;7.23;3.10;;;;;;;;;;4948851;28;226524;-78
2022/06/27 11:05:50;;;;;;;4.27;2.97;;;;;;;;;;4926920;28;217142;-79
2022/06/27 11:08:17;;;;;;;3.83;3.20;;;;;;;;;;4907420;28;224933;-80
2022/06/27 11:10:44;;;;;;;6.10;3.10;;;;;;;;;;4961795;28;674297;-80
2022/06/27 11:13:11;;;;;;;9.07;3.47;;;;;;;;;;4943826;28;230563;-75
2022/06/27 11:15:49;;;;;;;5.17;3.17;;;;;;;;;;4968305;28;20242;-78
2022/06/27 11:18:16;;;;;;;4.37;3.40;;;;;;;;;;4959553;28;30218;-78
2022/06/27 11:20:43;;;;;;;4.50;3.07;;;;;;;;;;4915685;28;234714;-78
2022/06/27 11:23:11;;;;;;;5.10;3.40;;;;;;;;;;4982089;28;23831;-79
2022/06/27 11:25:41;;;;;;;8.90;3.83;;;;;;;;;;4933105;28;220078;-79
2022/06/27 11:33:41;;;;;;;4.70;3.80;;;;;;;;;;4946852;28;220238;-76
2022/06/27 11:36:10;;;;;;;5.73;3.37;;;;;;;;;;4990228;28;219894;-77
2022/06/27 11:38:41;;;;;;;4.13;3.70;;;;;;;;;;4979315;28;35483;-76
2022/06/27 11:41:09;;;;;;;4.83;3.60;;;;;;;;;;4930542;28;216756;-73
2022/06/27 11:43:44;;;;;;;5.73;3.47;;;;;;;;;;4958286;28;20852;-74
2022/06/27 11:46:21;;;;;;;5.97;3.43;;;;;;;;;;4957531;28;218126;-72
2022/06/27 11:48:58;;;;;;;4.37;3.37;;;;;;;;;;4955101;28;20720;-72
2022/06/27 11:51:26;;;;;;;5.77;3.60;;;;;;;;;;4968165;28;20957;-74
2022/06/27 11:53:53;;;;;;;5.70;3.40;;;;;;;;;;4977239;28;20225;-72
2022/06/27 11:56:25;;;;;;;6.97;3.00;;;;;;;;;;4993288;28;20243;-72
2022/06/27 11:58:52;;;;;;;5.00;3.10;;;;;;;;;;4980887;28;20241;-72
2022/06/27 12:01:20;;;;;;;8.37;3.40;;;;;;;;;;4982529;28;20471;-72
2022/06/27 12:04:05;;;;;;;5.30;3.13;;;;;;;;;;4995786;28;20699;-71
2022/06/27 12:06:39;;;;;;;6.33;3.00;;;;;;;;;;4997455;28;20221;-72
2022/06/27 12:09:07;;;;;;;5.87;2.93;;;;;;;;;;4982541;28;20237;-72
2022/06/27 12:11:52;;;;;;;5.97;2.97;;;;;;;;;;4974528;28;20229;-72
2022/06/27 12:14:21;;;;;;;4.90;2.80;;;;;;;;;;4982269;28;20234;-73
2022/06/27 12:16:53;;;;;;;6.50;2.87;;;;;;;;;;4997208;28;20234;-72
2022/06/27 12:19:25;;;;;;;4.87;2.67;;;;;;;;;;4983798;28;229765;-71
2022/06/27 12:21:52;;;;;;;7.43;3.00;;;;;;;;;;4966408;28;217434;-74
2022/06/27 12:24:18;;;;;;;7.73;2.97;;;;;;;;;;4993475;28;20227;-72
2022/06/27 12:26:45;;;;;;;6.40;2.80;;;;;;;;;;4994973;28;20582;-71
2022/06/27 12:29:12;;;;;;;4.90;3.10;;;;;;;;;;4977622;28;20281;-72
2022/06/27 12:31:40;;;;;;;7.20;2.90;;;;;;;;;;4998308;28;31728;-71
2022/06/27 12:34:06;;;;;;;5.57;3.00;;;;;;;;;;4982075;28;20242;-71
2022/06/27 12:36:33;;;;;;;6.07;2.90;;;;;;;;;;4973901;28;20231;-71
2022/06/27 12:39:00;;;;;;;4.40;2.80;;;;;;;;;;4995573;28;20219;-70
2022/06/27 12:41:27;;;;;;;4.73;2.90;;;;;;;;;;4990748;28;22139;-68
2022/06/27 12:43:54;;;;;;;3.97;2.80;;;;;;;;;;4976433;28;20242;-70
2022/06/27 12:46:24;;;;;;;5.20;3.20;;;;;;;;;;4994570;28;20262;-72
2022/06/27 12:49:11;;;;;;;6.20;2.47;;;;;;;;;;4997219;28;20227;-72
2022/06/27 12:51:37;;;;;;;5.33;2.60;;;;;;;;;;4982983;28;20258;-70
2022/06/27 12:54:22;;;;;;;6.03;2.63;;;;;;;;;;4944315;28;20233;-69
2022/06/27 12:56:48;;;;;;;6.33;3.03;;;;;;;;;;4998159;28;20229;-70
2022/06/27 12:59:16;;;;;;;8.03;2.80;;;;;;;;;;4979631;28;20426;-71
2022/06/27 13:01:43;;;;;;;3.43;2.90;;;;;;;;;;4990867;28;229867;-73
2022/06/27 13:04:10;;;;;;;3.50;2.60;;;;;;;;;;5005925;28;20230;-72
2022/06/27 13:06:54;;;;;;;3.33;2.47;;;;;;;;;;5003602;28;20226;-72
2022/06/27 13:09:21;;;;;;;3.73;2.60;;;;;;;;;;5005414;28;20286;-72
2022/06/27 13:12:05;;;;;;;5.57;2.90;;;;;;;;;;5003345;28;20223;-74
2022/06/27 13:14:32;;;;;;;6.60;2.60;;;;;;;;;;4970438;28;20764;-73
2022/06/27 13:17:02;;;;;;;4.33;2.50;;;;;;;;;;5001350;28;20238;-73
2022/06/27 13:19:29;;;;;;;3.67;2.73;;;;;;;;;;5002385;28;20262;-74
2022/06/27 13:21:57;;;;;;;3.47;2.60;;;;;;;;;;4969765;28;20231;-73
2022/06/27 13:24:24;;;;;;;3.00;2.57;;;;;;;;;;4994543;28;20219;-72
2022/06/27 13:26:52;;;;;;;2.90;2.30;;;;;;;;;;4972637;28;225694;-74
2022/06/27 13:29:19;;;;;;;4.30;2.60;;;;;;;;;;4973233;28;20244;-71
2022/06/27 13:31:54;;;;;;;5.23;2.60;;;;;;;;;;4977415;28;20747;-70
2022/06/27 13:34:21;;;;;;;4.07;2.77;;;;;;;;;;4985255;28;20278;-73
2022/06/27 13:37:08;;;;;;;3.23;2.20;;;;;;;;;;4942113;28;234781;-72
2022/06/27 13:39:35;;;;;;;2.43;2.13;;;;;;;;;;4996934;28;20518;-71
2022/06/27 13:42:03;;;;;;;4.77;2.40;;;;;;;;;;4978307;28;20226;-73
2022/06/27 13:44:32;;;;;;;4.17;2.27;;;;;;;;;;4979763;28;20227;-73
2022/06/27 13:46:59;;;;;;;5.23;2.77;;;;;;;;;;4974643;28;20371;-71
2022/06/27 13:49:26;;;;;;;3.70;2.63;;;;;;;;;;4959759;28;227361;-74
2022/06/27 13:51:54;;;;;;;7.10;2.40;;;;;;;;;;4993930;28;20259;-70
2022/06/27 13:54:21;;;;;;;3.30;2.50;;;;;;;;;;4921806;28;219423;-72
2022/06/27 13:56:52;;;;;;;4.80;2.33;;;;;;;;;;4986394;28;20262;-71
2022/06/27 13:59:19;;;;;;;5.13;2.47;;;;;;;;;;4932863;28;217578;-74
2022/06/27 14:01:46;;;;;;;3.30;2.30;;;;;;;;;;4953065;28;231289;-73
2022/06/27 14:04:12;;;;;;;4.20;2.60;;;;;;;;;;4959927;28;226859;-74
2022/06/27 14:09:26;;;;;;;6.03;2.60;;;;;;;;;;4967943;28;20227;-71
2022/06/27 14:11:53;;;;;;;3.07;2.37;;;;;;;;;;4987901;28;222405;-72
2022/06/27 14:14:20;;;;;;;5.90;2.43;;;;;;;;;;4960816;28;20243;-74
2022/06/27 14:16:47;;;;;;;3.93;2.63;;;;;;;;;;4969713;28;20590;-71
2022/06/27 14:19:16;;;;;;;4.37;2.30;;;;;;;;;;4995925;28;20238;-69
2022/06/27 14:21:43;;;;;;;4.07;2.40;;;;;;;;;;4974621;28;20229;-69
2022/06/27 14:24:11;;;;;;;3.80;2.10;;;;;;;;;;4993569;28;20248;-71
2022/06/27 14:26:37;;;;;;;4.00;2.37;;;;;;;;;;4946013;28;20235;-71
2022/06/27 14:29:05;;;;;;;3.63;2.33;;;;;;;;;;4987448;28;215495;-70
2022/06/27 14:31:33;;;;;;;2.57;2.17;;;;;;;;;;4970874;28;214502;-69
2022/06/27 14:34:00;;;;;;;3.83;2.47;;;;;;;;;;4953023;28;214394;-75
2022/06/27 14:36:27;;;;;;;5.07;2.80;;;;;;;;;;4924741;28;233909;-70
2022/06/27 14:38:54;;;;;;;3.57;2.60;;;;;;;;;;4992703;28;37210;-74
2022/06/27 14:41:41;;;;;;;5.93;3.13;;;;;;;;;;4963125;28;20727;-71
2022/06/27 14:44:09;;;;;;;12.13;2.70;;;;;;;;;;4979390;28;20226;-75
2022/06/27 14:46:54;;;;;;;2.87;2.40;;;;;;;;;;4979449;28;20227;-70
2022/06/27 14:49:22;;;;;;;4.47;2.40;;;;;;;;;;4935987;28;664124;-72
2022/06/27 14:52:06;;;;;;;5.97;2.90;;;;;;;;;;4919246;28;20251;-72
2022/06/27 14:54:33;;;;;;;3.33;2.10;;;;;;;;;;4963128;28;20348;-69
2022/06/27 14:57:00;;;;;;;3.20;2.23;;;;;;;;;;4980391;28;20250;-70
2022/06/27 14:59:28;;;;;;;4.83;2.20;;;;;;;;;;4974140;28;20234;-71